createdAt,value
2019-03-17T00:00:32.351Z,2.40
2019-03-17T00:01:32.345Z,2.20
2019-03-17T00:02:32.330Z,2.10
2019-03-17T00:03:32.320Z,2.60
2019-03-17T00:04:32.320Z,2.20
2019-03-17T00:05:32.297Z,2.20
2019-03-17T00:06:32.292Z,2.10
2019-03-17T00:07:32.276Z,2.00
2019-03-17T00:08:32.266Z,2.30
2019-03-17T00:09:32.254Z,2.30
2019-03-17T00:10:32.247Z,2.60
2019-03-17T00:11:32.237Z,2.30
2019-03-17T00:12:32.226Z,2.30
2019-03-17T00:13:32.215Z,2.20
2019-03-17T00:14:32.205Z,2.40
2019-03-17T00:15:32.192Z,2.20
2019-03-17T00:16:32.200Z,2.00
2019-03-17T00:17:32.174Z,2.20
2019-03-17T00:18:32.158Z,2.20
2019-03-17T00:19:32.150Z,2.40
2019-03-17T00:20:32.136Z,2.30
2019-03-17T00:21:32.127Z,2.40
2019-03-17T00:22:32.115Z,2.20
2019-03-17T00:23:32.107Z,2.20
2019-03-17T00:24:32.093Z,2.40
2019-03-17T00:25:32.084Z,2.30
2019-03-17T00:26:32.072Z,2.30
2019-03-17T00:27:32.094Z,2.00
2019-03-17T00:28:32.054Z,2.10
2019-03-17T00:29:32.040Z,2.50
2019-03-17T00:30:32.027Z,2.50
2019-03-17T00:31:32.018Z,2.30
2019-03-17T00:32:32.007Z,2.40
2019-03-17T00:33:31.995Z,2.60
2019-03-17T00:34:43.489Z,2.50
2019-03-17T00:35:32.974Z,2.40
2019-03-17T00:36:31.965Z,2.30
2019-03-17T00:37:31.953Z,2.40
2019-03-17T00:38:31.942Z,2.30
2019-03-17T00:39:31.931Z,2.50
2019-03-17T00:40:31.924Z,2.30
2019-03-17T00:41:31.926Z,2.30
2019-03-17T00:42:31.899Z,2.30
2019-03-17T00:43:31.890Z,2.30
2019-03-17T00:44:31.878Z,2.80
2019-03-17T00:45:31.867Z,2.70
2019-03-17T00:46:31.856Z,2.50
2019-03-17T00:47:31.846Z,2.60
2019-03-17T00:48:31.834Z,2.60
2019-03-17T00:49:31.825Z,2.30
2019-03-17T00:50:31.814Z,2.30
2019-03-17T00:51:31.802Z,2.70
2019-03-17T00:52:31.794Z,2.40
2019-03-17T00:53:31.781Z,2.60
2019-03-17T00:54:31.774Z,3.00
2019-03-17T00:55:31.760Z,2.70
2019-03-17T00:56:31.752Z,2.70
2019-03-17T00:57:31.738Z,2.80
2019-03-17T00:58:31.734Z,2.30
2019-03-17T00:59:31.717Z,2.70
2019-03-17T01:00:31.709Z,2.50
2019-03-17T01:01:31.698Z,2.10
2019-03-17T01:02:31.685Z,2.60
2019-03-17T01:03:31.674Z,2.30
2019-03-17T01:04:31.672Z,2.60
2019-03-17T01:05:31.669Z,2.60
2019-03-17T01:06:31.643Z,2.50
2019-03-17T01:07:31.633Z,2.50
2019-03-17T01:08:31.625Z,2.30
2019-03-17T01:09:31.612Z,2.30
2019-03-17T01:10:31.598Z,2.70
2019-03-17T01:11:31.591Z,2.70
2019-03-17T01:12:31.576Z,2.50
2019-03-17T01:13:31.565Z,2.80
2019-03-17T01:14:31.556Z,2.40
2019-03-17T01:15:31.545Z,2.60
2019-03-17T01:16:31.538Z,2.50
2019-03-17T01:17:31.523Z,2.40
2019-03-17T01:18:31.512Z,2.70
2019-03-17T01:19:31.504Z,2.50
2019-03-17T01:20:31.491Z,2.40
2019-03-17T01:21:31.480Z,2.40
2019-03-17T01:22:31.474Z,2.60
2019-03-17T01:23:31.460Z,2.50
2019-03-17T01:24:31.459Z,2.40
2019-03-17T01:25:31.437Z,2.60
2019-03-17T01:26:31.427Z,2.80
2019-03-17T01:27:31.417Z,2.40
2019-03-17T01:28:31.405Z,2.40
2019-03-17T01:29:31.394Z,2.80
2019-03-17T01:30:31.391Z,2.40
2019-03-17T01:31:31.373Z,2.40
2019-03-17T01:32:31.363Z,2.80
2019-03-17T01:33:31.354Z,2.80
2019-03-17T01:34:31.343Z,2.70
2019-03-17T01:35:32.651Z,2.50
2019-03-17T01:36:31.319Z,2.40
2019-03-17T01:37:31.308Z,2.60
2019-03-17T01:38:31.298Z,2.50
2019-03-17T01:39:31.295Z,2.30
2019-03-17T01:40:31.275Z,2.60
2019-03-17T01:41:31.265Z,2.80
2019-03-17T01:42:31.256Z,2.80
2019-03-17T01:43:31.243Z,2.40
2019-03-17T01:44:31.234Z,2.40
2019-03-17T01:45:31.222Z,2.20
2019-03-17T01:46:31.211Z,2.40
2019-03-17T01:47:31.207Z,2.40
2019-03-17T01:48:31.191Z,2.40
2019-03-17T01:49:31.182Z,2.40
2019-03-17T01:50:31.169Z,2.80
2019-03-17T01:51:31.157Z,2.90
2019-03-17T01:52:31.148Z,2.60
2019-03-17T01:53:31.136Z,2.60
2019-03-17T01:54:31.124Z,2.70
2019-03-17T01:55:31.118Z,2.60
2019-03-17T01:56:31.104Z,2.40
2019-03-17T01:57:31.096Z,2.70
2019-03-17T01:58:31.083Z,2.70
2019-03-17T01:59:31.072Z,2.40
2019-03-17T02:00:31.062Z,2.30
2019-03-17T02:01:31.052Z,2.30
2019-03-17T02:02:31.047Z,2.30
2019-03-17T02:03:31.029Z,2.50
2019-03-17T02:04:31.023Z,2.60
2019-03-17T02:05:31.010Z,2.40
2019-03-17T02:06:31.000Z,2.40
2019-03-17T02:07:30.987Z,2.60
2019-03-17T02:08:30.976Z,2.50
2019-03-17T02:09:30.965Z,2.40
2019-03-17T02:10:30.957Z,2.30
2019-03-17T02:11:30.944Z,2.10
2019-03-17T02:12:30.935Z,2.40
2019-03-17T02:13:30.926Z,2.20
2019-03-17T02:14:30.915Z,2.30
2019-03-17T02:15:30.903Z,2.20
2019-03-17T02:16:30.901Z,2.50
2019-03-17T02:17:30.880Z,2.20
2019-03-17T02:18:30.896Z,2.40
2019-03-17T02:19:30.858Z,2.20
2019-03-17T02:20:30.853Z,2.20
2019-03-17T02:21:30.839Z,2.10
2019-03-17T02:22:30.890Z,2.30
2019-03-17T02:23:30.820Z,2.00
2019-03-17T02:24:30.805Z,2.10
2019-03-17T02:25:30.793Z,1.90
2019-03-17T02:26:30.794Z,2.30
2019-03-17T02:27:30.773Z,2.00
2019-03-17T02:28:30.762Z,2.00
2019-03-17T02:29:30.754Z,2.00
2019-03-17T02:30:30.747Z,2.10
2019-03-17T02:31:30.732Z,2.00
2019-03-17T02:32:30.723Z,2.60
2019-03-17T02:33:30.709Z,1.80
2019-03-17T02:34:30.700Z,2.00
2019-03-17T02:35:38.647Z,2.10
2019-03-17T02:36:31.679Z,2.40
2019-03-17T02:37:30.666Z,2.00
2019-03-17T02:38:30.659Z,1.80
2019-03-17T02:39:30.645Z,2.20
2019-03-17T02:40:30.634Z,1.60
2019-03-17T02:41:30.634Z,1.90
2019-03-17T02:42:30.613Z,1.90
2019-03-17T02:43:30.614Z,2.00
2019-03-17T02:44:30.602Z,1.80
2019-03-17T02:45:30.591Z,1.80
2019-03-17T02:46:30.571Z,2.00
2019-03-17T02:47:30.561Z,2.10
2019-03-17T02:48:30.551Z,2.10
2019-03-17T02:49:30.543Z,1.80
2019-03-17T02:50:30.529Z,2.10
2019-03-17T02:51:30.517Z,2.00
2019-03-17T02:52:30.510Z,2.10
2019-03-17T02:53:30.496Z,1.80
2019-03-17T02:54:30.485Z,2.00
2019-03-17T02:55:30.475Z,2.00
2019-03-17T02:56:30.467Z,1.90
2019-03-17T02:57:30.453Z,1.90
2019-03-17T02:58:30.442Z,1.80
2019-03-17T02:59:30.432Z,2.00
2019-03-17T03:00:30.424Z,2.00
2019-03-17T03:01:30.413Z,1.90
2019-03-17T03:02:30.400Z,1.90
2019-03-17T03:03:30.390Z,2.00
2019-03-17T03:04:30.378Z,1.90
2019-03-17T03:05:30.372Z,1.60
2019-03-17T03:06:30.357Z,1.90
2019-03-17T03:07:30.354Z,2.00
2019-03-17T03:08:30.335Z,1.80
2019-03-17T03:09:30.326Z,1.90
2019-03-17T03:10:32.101Z,1.70
2019-03-17T03:11:30.308Z,2.00
2019-03-17T03:12:30.292Z,1.80
2019-03-17T03:13:30.345Z,2.00
2019-03-17T03:14:30.271Z,1.50
2019-03-17T03:15:30.261Z,1.70
2019-03-17T03:16:30.262Z,2.10
2019-03-17T03:17:30.240Z,1.90
2019-03-17T03:18:30.234Z,1.70
2019-03-17T03:19:30.216Z,1.90
2019-03-17T03:20:30.230Z,1.60
2019-03-17T03:21:30.195Z,1.90
2019-03-17T03:22:30.185Z,1.80
2019-03-17T03:23:30.174Z,1.90
2019-03-17T03:24:30.163Z,1.70
2019-03-17T03:25:30.170Z,1.30
2019-03-17T03:26:30.151Z,1.80
2019-03-17T03:27:30.134Z,1.70
2019-03-17T03:28:30.145Z,1.60
2019-03-17T03:29:30.114Z,1.90
2019-03-17T03:30:30.105Z,1.70
2019-03-17T03:31:30.200Z,1.90
2019-03-17T03:32:30.084Z,1.70
2019-03-17T03:33:30.079Z,1.70
2019-03-17T03:34:30.060Z,1.50
2019-03-17T03:35:30.047Z,1.90
2019-03-17T03:36:30.037Z,1.70
2019-03-17T03:37:30.026Z,1.90
2019-03-17T03:38:30.014Z,1.70
2019-03-17T03:39:30.002Z,1.90
2019-03-17T03:40:29.991Z,1.70
2019-03-17T03:41:30.002Z,2.00
2019-03-17T03:42:29.972Z,1.70
2019-03-17T03:43:29.961Z,1.70
2019-03-17T03:44:29.954Z,1.90
2019-03-17T03:45:29.944Z,1.60
2019-03-17T03:46:29.926Z,1.80
2019-03-17T03:47:29.927Z,1.80
2019-03-17T03:48:29.918Z,1.60
2019-03-17T03:49:29.899Z,1.90
2019-03-17T03:50:29.883Z,1.80
2019-03-17T03:51:29.874Z,1.90
2019-03-17T03:52:29.864Z,2.00
2019-03-17T03:53:29.851Z,1.80
2019-03-17T03:54:29.851Z,2.00
2019-03-17T03:55:29.831Z,1.80
2019-03-17T03:56:29.823Z,1.80
2019-03-17T03:57:29.809Z,2.00
2019-03-17T03:58:29.799Z,1.90
2019-03-17T03:59:29.788Z,2.00
2019-03-17T04:00:29.776Z,2.20
2019-03-17T04:01:29.766Z,1.80
2019-03-17T04:02:29.756Z,2.00
2019-03-17T04:03:29.748Z,1.90
2019-03-17T04:04:29.736Z,1.90
2019-03-17T04:05:32.704Z,2.20
2019-03-17T04:06:29.715Z,2.10
2019-03-17T04:07:29.710Z,2.00
2019-03-17T04:08:29.691Z,2.10
2019-03-17T04:09:29.691Z,2.20
2019-03-17T04:10:29.671Z,2.10
2019-03-17T04:11:29.665Z,2.30
2019-03-17T04:12:29.689Z,2.20
2019-03-17T04:13:29.642Z,2.00
2019-03-17T04:14:29.626Z,2.10
2019-03-17T04:15:29.625Z,2.30
2019-03-17T04:16:29.607Z,2.10
2019-03-17T04:17:29.597Z,2.20
2019-03-17T04:18:29.583Z,2.10
2019-03-17T04:19:29.574Z,2.10
2019-03-17T04:20:29.570Z,2.10
2019-03-17T04:21:29.551Z,2.10
2019-03-17T04:22:29.542Z,2.30
2019-03-17T04:23:29.533Z,2.00
2019-03-17T04:24:29.520Z,2.20
2019-03-17T04:25:29.512Z,2.20
2019-03-17T04:26:29.499Z,2.20
2019-03-17T04:27:29.488Z,2.20
2019-03-17T04:28:29.477Z,2.10
2019-03-17T04:29:29.471Z,2.20
2019-03-17T04:30:29.455Z,1.90
2019-03-17T04:31:29.443Z,2.20
2019-03-17T04:32:29.433Z,2.40
2019-03-17T04:33:29.422Z,2.30
2019-03-17T04:34:29.412Z,2.20
2019-03-17T04:35:29.399Z,2.00
2019-03-17T04:36:39.595Z,2.00
2019-03-17T04:37:30.379Z,1.90
2019-03-17T04:38:29.369Z,1.90
2019-03-17T04:39:29.358Z,1.90
2019-03-17T04:40:29.350Z,2.20
2019-03-17T04:41:29.347Z,2.00
2019-03-17T04:42:29.329Z,2.10
2019-03-17T04:43:29.333Z,2.00
2019-03-17T04:44:29.305Z,2.00
2019-03-17T04:45:29.303Z,2.00
2019-03-17T04:46:29.284Z,2.10
2019-03-17T04:47:29.271Z,2.30
2019-03-17T04:48:29.261Z,2.00
2019-03-17T04:49:29.250Z,2.20
2019-03-17T04:50:29.240Z,2.20
2019-03-17T04:51:29.232Z,1.90
2019-03-17T04:52:29.219Z,2.20
2019-03-17T04:53:29.411Z,2.10
2019-03-17T04:54:29.198Z,2.00
2019-03-17T04:55:29.198Z,2.20
2019-03-17T04:56:29.176Z,1.90
2019-03-17T04:57:29.165Z,2.00
2019-03-17T04:58:29.159Z,1.80
2019-03-17T04:59:29.148Z,2.10
2019-03-17T05:00:29.135Z,1.90
2019-03-17T05:01:29.121Z,2.00
2019-03-17T05:02:29.110Z,2.20
2019-03-17T05:03:29.104Z,2.00
2019-03-17T05:04:29.096Z,1.90
2019-03-17T05:05:29.081Z,2.10
2019-03-17T05:06:29.070Z,2.20
2019-03-17T05:07:29.059Z,1.80
2019-03-17T05:08:29.048Z,1.80
2019-03-17T05:09:29.038Z,2.10
2019-03-17T05:10:29.037Z,1.90
2019-03-17T05:11:29.017Z,2.10
2019-03-17T05:12:29.003Z,2.10
2019-03-17T05:13:28.993Z,1.90
2019-03-17T05:14:28.985Z,2.00
2019-03-17T05:15:28.971Z,2.00
2019-03-17T05:16:28.969Z,2.20
2019-03-17T05:17:28.949Z,1.90
2019-03-17T05:18:28.945Z,2.00
2019-03-17T05:19:28.931Z,2.10
2019-03-17T05:20:28.917Z,1.90
2019-03-17T05:21:28.907Z,2.10
2019-03-17T05:22:28.896Z,2.00
2019-03-17T05:23:28.889Z,2.20
2019-03-17T05:24:28.878Z,2.00
2019-03-17T05:25:28.864Z,1.90
2019-03-17T05:26:28.853Z,1.80
2019-03-17T05:27:28.842Z,1.90
2019-03-17T05:28:28.834Z,1.80
2019-03-17T05:29:28.823Z,2.10
2019-03-17T05:30:28.810Z,2.10
2019-03-17T05:31:28.801Z,1.90
2019-03-17T05:32:28.790Z,1.90
2019-03-17T05:33:28.779Z,1.90
2019-03-17T05:34:28.768Z,1.90
2019-03-17T05:35:28.758Z,1.70
2019-03-17T05:36:28.748Z,1.60
2019-03-17T05:37:28.739Z,1.80
2019-03-17T05:38:28.727Z,2.00
2019-03-17T05:39:28.715Z,1.90
2019-03-17T05:40:28.703Z,2.00
2019-03-17T05:41:28.694Z,2.00
2019-03-17T05:42:28.683Z,2.00
2019-03-17T05:43:28.676Z,1.80
2019-03-17T05:44:28.663Z,1.70
2019-03-17T05:45:28.653Z,1.70
2019-03-17T05:46:28.647Z,1.80
2019-03-17T05:47:28.628Z,2.00
2019-03-17T05:48:28.618Z,1.80
2019-03-17T05:49:28.607Z,1.90
2019-03-17T05:50:28.600Z,1.80
2019-03-17T05:51:28.590Z,1.90
2019-03-17T05:52:28.576Z,1.80
2019-03-17T05:53:28.564Z,1.80
2019-03-17T05:54:28.552Z,1.90
2019-03-17T05:55:28.543Z,1.90
2019-03-17T05:56:28.532Z,1.80
2019-03-17T05:57:28.527Z,1.90
2019-03-17T05:58:28.512Z,1.90
2019-03-17T05:59:28.500Z,1.90
2019-03-17T06:00:28.492Z,2.10
2019-03-17T06:01:28.479Z,1.80
2019-03-17T06:02:28.468Z,2.20
2019-03-17T06:03:28.457Z,1.90
2019-03-17T06:04:28.448Z,2.00
2019-03-17T06:05:28.434Z,1.80
2019-03-17T06:06:28.425Z,1.90
2019-03-17T06:07:28.413Z,2.10
2019-03-17T06:08:28.406Z,1.80
2019-03-17T06:09:28.398Z,1.90
2019-03-17T06:10:28.381Z,2.00
2019-03-17T06:11:28.370Z,1.80
2019-03-17T06:12:28.360Z,1.70
2019-03-17T06:13:28.350Z,2.10
2019-03-17T06:14:28.339Z,1.90
2019-03-17T06:15:28.331Z,1.70
2019-03-17T06:16:28.317Z,2.00
2019-03-17T06:17:28.308Z,1.80
2019-03-17T06:18:28.306Z,1.80
2019-03-17T06:19:28.300Z,1.70
2019-03-17T06:20:28.279Z,2.10
2019-03-17T06:21:28.275Z,1.70
2019-03-17T06:22:28.253Z,1.80
2019-03-17T06:23:28.241Z,2.00
2019-03-17T06:24:28.231Z,1.80
2019-03-17T06:25:28.222Z,1.90
2019-03-17T06:26:28.218Z,1.80
2019-03-17T06:27:28.216Z,2.00
2019-03-17T06:28:28.189Z,1.70
2019-03-17T06:29:28.178Z,1.90
2019-03-17T06:30:28.168Z,1.60
2019-03-17T06:31:28.156Z,1.40
2019-03-17T06:32:28.151Z,1.80
2019-03-17T06:33:28.137Z,1.70
2019-03-17T06:34:28.125Z,1.80
2019-03-17T06:35:28.121Z,1.90
2019-03-17T06:36:28.106Z,1.70
2019-03-17T06:37:31.333Z,1.70
2019-03-17T06:38:28.087Z,1.80
2019-03-17T06:39:28.080Z,1.80
2019-03-17T06:40:28.061Z,1.60
2019-03-17T06:41:28.049Z,1.60
2019-03-17T06:42:28.042Z,1.70
2019-03-17T06:43:28.027Z,1.70
2019-03-17T06:44:28.019Z,1.60
2019-03-17T06:45:28.005Z,1.80
2019-03-17T06:46:27.997Z,1.50
2019-03-17T06:47:27.990Z,2.20
2019-03-17T06:48:27.973Z,1.70
2019-03-17T06:49:27.964Z,1.80
2019-03-17T06:50:27.963Z,1.70
2019-03-17T06:51:27.942Z,1.60
2019-03-17T06:52:27.931Z,1.80
2019-03-17T06:53:27.920Z,1.60
2019-03-17T06:54:27.911Z,1.70
2019-03-17T06:55:27.906Z,1.70
2019-03-17T06:56:27.891Z,1.60
2019-03-17T06:57:27.882Z,2.20
2019-03-17T06:58:27.867Z,1.60
2019-03-17T06:59:27.859Z,1.70
2019-03-17T07:00:27.846Z,1.70
2019-03-17T07:01:27.839Z,1.60
2019-03-17T07:02:27.823Z,1.70
2019-03-17T07:03:27.813Z,1.60
2019-03-17T07:04:27.818Z,1.70
2019-03-17T07:05:27.791Z,1.50
2019-03-17T07:06:27.787Z,1.60
2019-03-17T07:07:27.771Z,1.60
2019-03-17T07:08:27.760Z,1.40
2019-03-17T07:09:27.750Z,1.70
2019-03-17T07:10:27.740Z,1.70
2019-03-17T07:11:27.728Z,1.50
2019-03-17T07:12:27.720Z,1.70
2019-03-17T07:13:27.710Z,1.30
2019-03-17T07:14:27.695Z,1.60
2019-03-17T07:15:27.685Z,1.80
2019-03-17T07:16:27.678Z,1.70
2019-03-17T07:17:27.665Z,1.60
2019-03-17T07:18:27.673Z,1.70
2019-03-17T07:19:27.642Z,1.40
2019-03-17T07:20:27.633Z,1.50
2019-03-17T07:21:27.625Z,1.60
2019-03-17T07:22:27.690Z,1.50
2019-03-17T07:23:27.633Z,1.80
2019-03-17T07:24:27.596Z,1.80
2019-03-17T07:25:27.590Z,1.50
2019-03-17T07:26:27.570Z,1.70
2019-03-17T07:27:27.557Z,1.40
2019-03-17T07:28:27.546Z,1.40
2019-03-17T07:29:27.534Z,1.50
2019-03-17T07:30:27.527Z,1.40
2019-03-17T07:31:27.514Z,1.40
2019-03-17T07:32:27.503Z,1.30
2019-03-17T07:33:27.493Z,1.50
2019-03-17T07:34:27.491Z,1.20
2019-03-17T07:35:27.470Z,1.40
2019-03-17T07:36:27.463Z,1.50
2019-03-17T07:37:27.449Z,1.60
2019-03-17T07:38:27.436Z,1.40
2019-03-17T07:39:27.426Z,1.60
2019-03-17T07:40:27.428Z,1.40
2019-03-17T07:41:27.429Z,1.50
2019-03-17T07:42:27.413Z,1.50
2019-03-17T07:43:27.386Z,1.40
2019-03-17T07:44:27.413Z,1.40
2019-03-17T07:45:27.370Z,1.30
2019-03-17T07:46:27.359Z,1.60
2019-03-17T07:47:27.344Z,1.30
2019-03-17T07:48:27.332Z,1.60
2019-03-17T07:49:27.318Z,1.40
2019-03-17T07:50:27.311Z,1.60
2019-03-17T07:51:27.307Z,1.50
2019-03-17T07:52:27.290Z,1.50
2019-03-17T07:53:27.276Z,1.40
2019-03-17T07:54:27.272Z,1.60
2019-03-17T07:55:27.254Z,1.50
2019-03-17T07:56:27.245Z,1.40
2019-03-17T07:57:27.233Z,1.60
2019-03-17T07:58:27.225Z,1.50
2019-03-17T07:59:27.221Z,1.40
2019-03-17T08:00:32.075Z,1.60
2019-03-17T08:01:28.195Z,1.40
2019-03-17T08:02:27.179Z,1.60
2019-03-17T08:03:27.168Z,1.70
2019-03-17T08:04:27.158Z,1.80
2019-03-17T08:05:27.149Z,1.60
2019-03-17T08:06:27.137Z,2.30
2019-03-17T08:07:27.124Z,2.00
2019-03-17T08:08:27.162Z,2.10
2019-03-17T08:09:27.105Z,1.50
2019-03-17T08:10:27.092Z,1.30
2019-03-17T08:11:27.082Z,1.50
2019-03-17T08:12:27.071Z,1.40
2019-03-17T08:13:27.062Z,1.50
2019-03-17T08:14:27.057Z,1.80
2019-03-17T08:15:27.039Z,1.50
2019-03-17T08:16:27.095Z,1.40
2019-03-17T08:17:27.103Z,1.30
2019-03-17T08:18:27.011Z,1.40
2019-03-17T08:19:26.997Z,1.40
2019-03-17T08:20:26.998Z,1.20
2019-03-17T08:21:27.007Z,1.40
2019-03-17T08:22:26.967Z,1.30
2019-03-17T08:23:26.964Z,1.30
2019-03-17T08:24:26.942Z,1.40
2019-03-17T08:25:26.931Z,1.30
2019-03-17T08:26:26.923Z,1.30
2019-03-17T08:27:26.950Z,1.30
2019-03-17T08:28:26.900Z,1.40
2019-03-17T08:29:26.891Z,1.50
2019-03-17T08:30:26.880Z,1.50
2019-03-17T08:31:26.868Z,1.40
2019-03-17T08:32:26.856Z,1.30
2019-03-17T08:33:26.846Z,1.30
2019-03-17T08:34:26.835Z,1.40
2019-03-17T08:35:26.825Z,1.40
2019-03-17T08:36:26.817Z,1.50
2019-03-17T08:37:26.808Z,1.40
2019-03-17T08:38:26.793Z,1.50
2019-03-17T08:39:26.781Z,1.40
2019-03-17T08:40:26.776Z,1.40
2019-03-17T08:41:26.776Z,1.50
2019-03-17T08:42:26.754Z,1.40
2019-03-17T08:43:26.741Z,1.60
2019-03-17T08:44:26.733Z,1.30
2019-03-17T08:45:26.718Z,1.50
2019-03-17T08:46:26.712Z,1.50
2019-03-17T08:47:26.697Z,1.50
2019-03-17T08:48:26.686Z,1.50
2019-03-17T08:49:26.680Z,1.60
2019-03-17T08:50:26.666Z,1.30
2019-03-17T08:51:26.779Z,1.50
2019-03-17T08:52:26.648Z,1.60
2019-03-17T08:53:26.634Z,1.40
2019-03-17T08:54:26.625Z,1.60
2019-03-17T08:55:26.612Z,1.60
2019-03-17T08:56:26.602Z,1.30
2019-03-17T08:57:26.590Z,1.60
2019-03-17T08:58:26.578Z,1.60
2019-03-17T08:59:26.572Z,1.50
2019-03-17T09:00:26.563Z,1.40
2019-03-17T09:01:26.547Z,1.40
2019-03-17T09:02:26.537Z,1.20
2019-03-17T09:03:26.529Z,1.50
2019-03-17T09:04:26.526Z,1.50
2019-03-17T09:05:26.506Z,1.50
2019-03-17T09:06:26.492Z,1.60
2019-03-17T09:07:27.827Z,1.40
2019-03-17T09:08:34.783Z,1.70
2019-03-17T09:09:27.463Z,1.40
2019-03-17T09:10:26.451Z,1.40
2019-03-17T09:11:26.438Z,1.70
2019-03-17T09:12:26.427Z,1.50
2019-03-17T09:13:26.416Z,1.40
2019-03-17T09:14:26.406Z,1.50
2019-03-17T09:15:26.396Z,1.50
2019-03-17T09:16:26.389Z,1.70
2019-03-17T09:17:26.373Z,1.40
2019-03-17T09:18:27.083Z,1.60
2019-03-17T09:19:26.352Z,1.60
2019-03-17T09:20:26.345Z,1.50
2019-03-17T09:21:26.330Z,1.50
2019-03-17T09:22:26.328Z,1.60
2019-03-17T09:23:26.308Z,1.60
2019-03-17T09:24:26.298Z,1.60
2019-03-17T09:25:26.288Z,1.70
2019-03-17T09:26:26.277Z,1.70
2019-03-17T09:27:26.267Z,1.40
2019-03-17T09:28:26.254Z,1.60
2019-03-17T09:29:26.244Z,1.40
2019-03-17T09:30:26.237Z,1.60
2019-03-17T09:31:26.229Z,1.50
2019-03-17T09:32:26.213Z,1.60
2019-03-17T09:33:26.205Z,1.50
2019-03-17T09:34:26.192Z,1.50
2019-03-17T09:35:26.182Z,1.50
2019-03-17T09:36:26.178Z,1.60
2019-03-17T09:37:26.161Z,1.40
2019-03-17T09:38:26.155Z,1.50
2019-03-17T09:39:26.140Z,1.60
2019-03-17T09:40:26.151Z,1.30
2019-03-17T09:41:26.121Z,1.80
2019-03-17T09:42:26.107Z,1.50
2019-03-17T09:43:26.098Z,1.20
2019-03-17T09:44:26.088Z,1.70
2019-03-17T09:45:26.076Z,1.60
2019-03-17T09:46:26.065Z,1.70
2019-03-17T09:47:26.053Z,1.50
2019-03-17T09:48:26.044Z,1.80
2019-03-17T09:49:26.031Z,1.30
2019-03-17T09:50:26.023Z,1.60
2019-03-17T09:51:26.019Z,1.40
2019-03-17T09:52:26.000Z,1.60
2019-03-17T09:53:28.468Z,1.70
2019-03-17T09:54:25.983Z,1.50
2019-03-17T09:55:25.973Z,1.50
2019-03-17T09:56:25.966Z,1.70
2019-03-17T09:57:25.952Z,1.50
2019-03-17T09:58:25.937Z,1.60
2019-03-17T09:59:25.934Z,1.70
2019-03-17T10:00:25.919Z,1.50
2019-03-17T10:01:25.906Z,2.10
2019-03-17T10:02:25.905Z,1.40
2019-03-17T10:03:25.891Z,1.70
2019-03-17T10:04:25.873Z,1.60
2019-03-17T10:05:25.860Z,1.70
2019-03-17T10:06:25.855Z,1.40
2019-03-17T10:07:25.854Z,1.70
2019-03-17T10:08:25.832Z,1.50
2019-03-17T10:09:25.828Z,1.50
2019-03-17T10:10:25.809Z,1.50
2019-03-17T10:11:25.796Z,1.30
2019-03-17T10:12:25.784Z,1.50
2019-03-17T10:13:25.775Z,1.40
2019-03-17T10:14:25.764Z,1.50
2019-03-17T10:15:25.752Z,1.50
2019-03-17T10:16:25.775Z,1.30
2019-03-17T10:17:25.733Z,1.50
2019-03-17T10:18:25.721Z,1.30
2019-03-17T10:19:25.710Z,1.50
2019-03-17T10:20:25.708Z,1.40
2019-03-17T10:21:25.710Z,1.30
2019-03-17T10:22:25.744Z,2.20
2019-03-17T10:23:25.682Z,1.50
2019-03-17T10:24:25.663Z,1.50
2019-03-17T10:25:25.660Z,1.40
2019-03-17T10:26:25.643Z,1.30
2019-03-17T10:27:25.632Z,1.50
2019-03-17T10:28:25.612Z,1.30
2019-03-17T10:29:25.600Z,1.20
2019-03-17T10:30:25.590Z,1.60
2019-03-17T10:31:25.584Z,1.50
2019-03-17T10:32:25.575Z,1.50
2019-03-17T10:33:25.561Z,1.20
2019-03-17T10:34:25.548Z,1.50
2019-03-17T10:35:25.540Z,1.60
2019-03-17T10:36:25.525Z,4.30
2019-03-17T10:37:25.535Z,2.00
2019-03-17T10:38:25.508Z,2.10
2019-03-17T10:39:25.494Z,3.30
2019-03-17T10:40:25.482Z,4.00
2019-03-17T10:41:25.472Z,2.30
2019-03-17T10:42:25.462Z,3.50
2019-03-17T10:43:25.450Z,3.00
2019-03-17T10:44:25.447Z,2.70
2019-03-17T10:45:25.428Z,3.60
2019-03-17T10:46:25.420Z,2.40
2019-03-17T10:47:25.406Z,3.20
2019-03-17T10:48:25.397Z,3.60
2019-03-17T10:49:25.395Z,2.60
2019-03-17T10:50:25.394Z,2.50
2019-03-17T10:51:25.366Z,2.10
2019-03-17T10:52:25.354Z,4.70
2019-03-17T10:53:25.350Z,3.60
2019-03-17T10:54:25.338Z,3.70
2019-03-17T10:55:25.324Z,4.80
2019-03-17T10:56:25.328Z,3.00
2019-03-17T10:57:25.301Z,2.50
2019-03-17T10:58:25.289Z,2.30
2019-03-17T10:59:27.591Z,2.20
2019-03-17T11:00:25.270Z,2.60
2019-03-17T11:01:25.263Z,4.30
2019-03-17T11:02:25.247Z,3.50
2019-03-17T11:03:25.237Z,2.30
2019-03-17T11:04:25.226Z,2.60
2019-03-17T11:05:25.214Z,2.20
2019-03-17T11:06:25.206Z,2.00
2019-03-17T11:07:25.195Z,2.60
2019-03-17T11:08:25.188Z,1.60
2019-03-17T11:09:25.763Z,2.10
2019-03-17T11:10:25.162Z,1.60
2019-03-17T11:11:25.154Z,1.60
2019-03-17T11:12:25.214Z,1.60
2019-03-17T11:13:25.131Z,1.30
2019-03-17T11:14:25.121Z,2.40
2019-03-17T11:15:25.108Z,2.40
2019-03-17T11:16:25.098Z,1.80
2019-03-17T11:17:25.089Z,1.80
2019-03-17T11:18:25.077Z,1.50
2019-03-17T11:19:25.840Z,1.50
2019-03-17T11:20:25.056Z,1.50
2019-03-17T11:21:25.057Z,1.50
2019-03-17T11:22:25.103Z,1.80
2019-03-17T11:23:25.034Z,1.90
2019-03-17T11:24:25.023Z,1.60
2019-03-17T11:25:25.012Z,1.60
2019-03-17T11:26:25.000Z,1.50
2019-03-17T11:27:24.993Z,1.70
2019-03-17T11:28:24.990Z,1.40
2019-03-17T11:29:24.971Z,1.50
2019-03-17T11:30:24.957Z,1.60
2019-03-17T11:31:24.955Z,1.20
2019-03-17T11:32:24.931Z,1.60
2019-03-17T11:33:24.927Z,1.50
2019-03-17T11:34:24.911Z,1.30
2019-03-17T11:35:24.922Z,1.30
2019-03-17T11:36:24.890Z,1.30
2019-03-17T11:37:24.880Z,1.40
2019-03-17T11:38:24.867Z,1.60
2019-03-17T11:39:36.919Z,1.40
2019-03-17T11:40:25.844Z,1.30
2019-03-17T11:41:24.837Z,1.20
2019-03-17T11:42:24.826Z,1.30
2019-03-17T11:43:24.813Z,1.50
2019-03-17T11:44:24.809Z,1.20
2019-03-17T11:45:24.791Z,1.80
2019-03-17T11:46:24.784Z,1.70
2019-03-17T11:47:24.773Z,1.20
2019-03-17T11:48:24.760Z,1.60
2019-03-17T11:49:24.749Z,1.90
2019-03-17T11:50:24.733Z,1.20
2019-03-17T11:51:24.726Z,1.30
2019-03-17T11:52:24.716Z,1.40
2019-03-17T11:53:24.702Z,1.40
2019-03-17T11:54:24.695Z,1.30
2019-03-17T11:55:24.682Z,1.50
2019-03-17T11:56:24.670Z,1.70
2019-03-17T11:57:24.657Z,1.50
2019-03-17T11:58:24.647Z,1.20
2019-03-17T11:59:24.637Z,1.20
2019-03-17T12:00:24.630Z,1.60
2019-03-17T12:01:24.617Z,1.30
2019-03-17T12:02:26.737Z,1.50
2019-03-17T12:03:24.595Z,1.60
2019-03-17T12:04:24.583Z,1.50
2019-03-17T12:05:24.573Z,1.60
2019-03-17T12:06:24.583Z,1.20
2019-03-17T12:07:24.556Z,1.40
2019-03-17T12:08:24.551Z,1.50
2019-03-17T12:09:29.371Z,1.40
2019-03-17T12:10:25.518Z,1.20
2019-03-17T12:11:24.507Z,1.40
2019-03-17T12:12:24.497Z,1.20
2019-03-17T12:13:24.487Z,1.70
2019-03-17T12:14:24.478Z,1.20
2019-03-17T12:15:24.466Z,1.30
2019-03-17T12:16:24.466Z,1.20
2019-03-17T12:17:24.443Z,1.40
2019-03-17T12:18:24.434Z,1.30
2019-03-17T12:19:24.424Z,1.20
2019-03-17T12:20:24.412Z,1.40
2019-03-17T12:21:24.400Z,1.40
2019-03-17T12:22:24.401Z,1.50
2019-03-17T12:23:24.379Z,1.40
2019-03-17T12:24:24.369Z,1.40
2019-03-17T12:25:24.358Z,1.30
2019-03-17T12:26:24.367Z,1.40
2019-03-17T12:27:24.339Z,1.30
2019-03-17T12:28:24.328Z,1.30
2019-03-17T12:29:24.316Z,1.50
2019-03-17T12:30:24.305Z,1.50
2019-03-17T12:31:24.292Z,1.30
2019-03-17T12:32:24.282Z,1.40
2019-03-17T12:33:24.288Z,1.30
2019-03-17T12:34:28.513Z,1.50
2019-03-17T12:35:24.253Z,1.40
2019-03-17T12:36:24.238Z,1.40
2019-03-17T12:37:24.233Z,1.50
2019-03-17T12:38:24.217Z,1.50
2019-03-17T12:39:24.221Z,1.40
2019-03-17T12:40:24.197Z,1.60
2019-03-17T12:41:24.189Z,1.30
2019-03-17T12:42:24.174Z,1.40
2019-03-17T12:43:24.163Z,1.40
2019-03-17T12:44:24.154Z,1.30
2019-03-17T12:45:24.142Z,1.30
2019-03-17T12:46:24.132Z,1.20
2019-03-17T12:47:24.127Z,1.40
2019-03-17T12:48:24.112Z,1.40
2019-03-17T12:49:24.099Z,1.60
2019-03-17T12:50:24.090Z,1.20
2019-03-17T12:51:24.078Z,1.40
2019-03-17T12:52:24.067Z,1.50
2019-03-17T12:53:24.056Z,1.40
2019-03-17T12:54:24.046Z,1.40
2019-03-17T12:55:24.037Z,1.40
2019-03-17T12:56:24.025Z,1.30
2019-03-17T12:57:24.015Z,1.20
2019-03-17T12:58:24.002Z,1.30
2019-03-17T12:59:23.991Z,1.30
2019-03-17T13:00:23.986Z,1.40
2019-03-17T13:01:23.970Z,1.40
2019-03-17T13:02:23.960Z,1.40
2019-03-17T13:03:23.949Z,1.30
2019-03-17T13:04:23.939Z,1.30
2019-03-17T13:05:23.949Z,1.20
2019-03-17T13:06:23.916Z,1.50
2019-03-17T13:07:23.909Z,1.70
2019-03-17T13:08:23.895Z,1.50
2019-03-17T13:09:23.884Z,1.50
2019-03-17T13:10:23.875Z,1.40
2019-03-17T13:11:23.862Z,1.50
2019-03-17T13:12:23.852Z,1.40
2019-03-17T13:13:23.841Z,1.40
2019-03-17T13:14:23.831Z,1.80
2019-03-17T13:15:23.820Z,1.50
2019-03-17T13:16:23.811Z,1.00
2019-03-17T13:17:23.797Z,0.40
2019-03-17T13:18:23.787Z,0.40